createdAt,value
2018-03-02T00:01:56.758Z,-7.06
2018-03-02T00:04:25.948Z,-7.04
2018-03-02T00:06:55.029Z,-7.04
2018-03-02T00:09:24.539Z,-7.03
2018-03-02T00:11:53.690Z,-7.09
2018-03-02T00:14:22.754Z,-7.18
2018-03-02T00:16:52.172Z,-7.23
2018-03-02T00:19:21.234Z,-7.37
2018-03-02T00:21:50.308Z,-7.53
2018-03-02T00:24:19.405Z,-7.69
2018-03-02T00:26:48.471Z,-7.81
2018-03-02T00:29:18.010Z,-7.89
2018-03-02T00:31:47.443Z,-7.99
2018-03-02T00:34:16.700Z,-8.04
2018-03-02T00:36:46.065Z,-8.09
2018-03-02T00:39:15.151Z,-8.17
2018-03-02T00:41:44.513Z,-8.23
2018-03-02T00:44:13.639Z,-8.26
2018-03-02T00:46:42.788Z,-8.27
2018-03-02T00:49:11.858Z,-8.33
2018-03-02T00:51:41.135Z,-8.40
2018-03-02T00:54:10.459Z,-8.38
2018-03-02T00:56:39.527Z,-8.45
2018-03-02T00:59:09.659Z,-8.49
2018-03-02T01:01:38.823Z,-8.56
2018-03-02T01:04:07.886Z,-8.61
2018-03-02T01:06:36.961Z,-8.65
2018-03-02T01:09:06.231Z,-8.63
2018-03-02T01:11:35.352Z,-8.61
2018-03-02T01:14:04.542Z,-8.63
2018-03-02T01:16:34.151Z,-8.61
2018-03-02T01:19:03.471Z,-8.57
2018-03-02T01:21:32.543Z,-8.54
2018-03-02T01:24:01.994Z,-8.58
2018-03-02T01:26:31.074Z,-8.64
2018-03-02T01:29:01.455Z,-8.66
2018-03-02T01:31:30.578Z,-8.69
2018-03-02T01:33:59.642Z,-8.75
2018-03-02T01:36:29.017Z,-8.79
2018-03-02T01:38:58.212Z,-8.84
2018-03-02T01:41:27.341Z,-8.85
2018-03-02T01:43:56.414Z,-8.89
2018-03-02T01:46:26.122Z,-8.92
2018-03-02T01:48:55.205Z,-8.94
2018-03-02T01:51:37.360Z,-9.00
2018-03-02T01:54:06.432Z,-9.05
2018-03-02T01:56:36.377Z,-9.06
2018-03-02T01:59:05.460Z,-9.03
2018-03-02T02:01:34.808Z,-8.98
2018-03-02T02:04:03.881Z,-8.96
2018-03-02T02:06:32.967Z,-8.97
2018-03-02T02:09:02.046Z,-8.98
2018-03-02T02:11:31.143Z,-8.98
2018-03-02T02:14:00.624Z,-8.97
2018-03-02T02:16:30.104Z,-8.95
2018-03-02T02:18:59.201Z,-8.95
2018-03-02T02:21:28.510Z,-8.95
2018-03-02T02:23:57.604Z,-8.96
2018-03-02T02:26:26.933Z,-8.98
2018-03-02T02:28:56.007Z,-8.94
2018-03-02T02:31:25.373Z,-8.87
2018-03-02T02:33:54.837Z,-8.84
2018-03-02T02:36:24.488Z,-8.82
2018-03-02T02:38:53.559Z,-8.75
2018-03-02T02:41:22.962Z,-8.73
2018-03-02T02:43:52.109Z,-8.71
2018-03-02T02:46:22.589Z,-8.67
2018-03-02T02:48:52.496Z,-8.63
2018-03-02T02:51:21.562Z,-8.65
2018-03-02T02:53:50.696Z,-8.65
2018-03-02T02:56:20.180Z,-8.72
2018-03-02T02:58:49.712Z,-8.77
2018-03-02T03:01:19.684Z,-8.83
2018-03-02T03:03:48.913Z,-8.83
2018-03-02T03:06:18.443Z,-8.85
2018-03-02T03:08:47.600Z,-8.86
2018-03-02T03:11:16.700Z,-8.87
2018-03-02T03:13:46.043Z,-8.86
2018-03-02T03:16:15.545Z,-8.81
2018-03-02T03:18:45.143Z,-8.75
2018-03-02T03:21:14.649Z,-8.67
2018-03-02T03:23:44.726Z,-8.65
2018-03-02T03:26:15.306Z,-8.71
2018-03-02T03:28:45.350Z,-8.74
2018-03-02T03:31:14.491Z,-8.77
2018-03-02T03:33:43.561Z,-8.77
2018-03-02T03:36:12.636Z,-8.75
2018-03-02T03:38:42.009Z,-8.76
2018-03-02T03:41:11.224Z,-8.75
2018-03-02T03:43:40.403Z,-8.72
2018-03-02T03:46:09.501Z,-8.67
2018-03-02T03:48:38.862Z,-8.69
2018-03-02T03:51:07.990Z,-8.69
2018-03-02T03:53:38.012Z,-8.68
2018-03-02T03:56:07.343Z,-8.71
2018-03-02T03:58:36.449Z,-8.74
2018-03-02T04:01:09.288Z,-8.79
2018-03-02T04:03:39.792Z,-8.85
2018-03-02T04:06:09.476Z,-8.90
2018-03-02T04:08:38.880Z,-8.86
2018-03-02T04:11:08.011Z,-8.81
2018-03-02T04:13:37.367Z,-8.78
2018-03-02T04:16:06.438Z,-8.73
2018-03-02T04:18:36.137Z,-8.71
2018-03-02T04:21:06.293Z,-8.71
2018-03-02T04:23:35.364Z,-8.66
2018-03-02T04:26:04.683Z,-8.63
2018-03-02T04:28:33.881Z,-8.66
2018-03-02T04:31:03.499Z,-8.73
2018-03-02T04:33:32.825Z,-8.80
2018-03-02T04:36:02.564Z,-8.87
2018-03-02T04:38:31.640Z,-8.91
2018-03-02T04:41:00.710Z,-8.90
2018-03-02T04:43:29.891Z,-8.86
2018-03-02T04:45:59.036Z,-8.81
2018-03-02T04:48:28.227Z,-8.85
2018-03-02T04:50:57.634Z,-8.86
2018-03-02T04:53:26.787Z,-8.91
2018-03-02T04:55:55.855Z,-8.96
2018-03-02T04:58:25.130Z,-8.98
2018-03-02T05:00:54.284Z,-8.99
2018-03-02T05:03:23.958Z,-8.98
2018-03-02T05:05:53.271Z,-8.99
2018-03-02T05:08:22.412Z,-9.02
2018-03-02T05:10:51.546Z,-9.08
2018-03-02T05:13:20.641Z,-9.10
2018-03-02T05:15:49.738Z,-9.11
2018-03-02T05:18:19.396Z,-9.09
2018-03-02T05:20:48.514Z,-9.12
2018-03-02T05:23:17.646Z,-9.14
2018-03-02T05:25:46.748Z,-9.15
2018-03-02T05:28:15.984Z,-9.15
2018-03-02T05:30:45.629Z,-9.16
2018-03-02T05:33:14.829Z,-9.16
2018-03-02T06:19:52.002Z,25.64
2018-03-02T06:22:21.099Z,26.47
2018-03-02T06:24:50.704Z,26.52
2018-03-02T06:27:19.913Z,26.12
2018-03-02T06:29:49.021Z,25.73
2018-03-02T06:32:18.300Z,24.74
2018-03-02T06:34:47.551Z,20.91
2018-03-02T06:37:16.638Z,14.73
2018-03-02T06:39:45.816Z,10.32
2018-03-02T06:42:15.265Z,7.58
2018-03-02T06:44:44.891Z,6.15
2018-03-02T06:47:14.608Z,6.24
2018-03-02T06:49:43.737Z,4.90
2018-03-02T06:52:12.819Z,1.94
2018-03-02T06:54:42.378Z,-0.75
2018-03-02T06:57:11.703Z,-2.72
2018-03-02T06:59:41.571Z,-4.09
2018-03-02T07:02:11.287Z,-4.85
2018-03-02T07:04:40.928Z,-5.40
2018-03-02T07:07:11.199Z,-5.78
2018-03-02T07:09:40.603Z,-6.15
2018-03-02T07:12:10.621Z,-6.50
2018-03-02T07:14:39.998Z,-6.75
2018-03-02T07:17:09.087Z,-6.96
2018-03-02T07:19:38.167Z,-7.09
2018-03-02T07:22:07.588Z,-7.21
2018-03-02T07:24:37.829Z,-7.33
2018-03-02T07:27:06.914Z,-7.41
2018-03-02T07:29:35.992Z,-7.39
2018-03-02T07:32:05.073Z,-7.35
2018-03-02T07:34:34.187Z,-7.37
2018-03-02T07:37:03.639Z,-7.43
2018-03-02T07:39:34.164Z,-7.54
2018-03-02T07:42:03.882Z,-7.55
2018-03-02T07:44:33.540Z,-7.58
2018-03-02T07:47:03.745Z,-7.53
2018-03-02T07:49:33.391Z,-7.44
2018-03-02T07:52:02.655Z,-7.35
2018-03-02T07:54:31.985Z,-7.23
2018-03-02T07:57:02.486Z,-7.21
2018-03-02T07:59:31.563Z,-7.17
2018-03-02T08:02:01.571Z,-7.11
2018-03-02T08:04:31.607Z,-7.08
2018-03-02T08:07:01.454Z,-7.09
2018-03-02T08:09:31.983Z,-7.03
2018-03-02T08:12:01.091Z,-6.93
2018-03-02T08:14:30.721Z,-6.83
2018-03-02T08:16:59.803Z,-6.74
2018-03-02T08:19:28.898Z,-6.70
2018-03-02T08:21:58.799Z,-6.66
2018-03-02T08:24:27.888Z,-6.76
2018-03-02T08:26:57.180Z,-6.85
2018-03-02T08:29:27.146Z,-6.81
2018-03-02T08:31:59.087Z,-6.72
2018-03-02T08:34:28.342Z,-6.61
2018-03-02T08:36:57.826Z,-6.56
2018-03-02T08:39:27.098Z,-6.57
2018-03-02T08:41:57.328Z,-6.55
2018-03-02T08:44:26.834Z,-6.52
2018-03-02T08:46:57.568Z,-6.56
2018-03-02T08:49:27.872Z,-6.48
2018-03-02T08:51:57.718Z,-6.29
2018-03-02T08:54:27.199Z,-6.29
2018-03-02T08:56:56.282Z,-6.31
2018-03-02T08:59:25.346Z,-6.23
2018-03-02T09:01:55.306Z,-6.15
2018-03-02T09:04:25.121Z,-6.09
2018-03-02T09:06:54.475Z,-6.08
2018-03-02T09:09:24.688Z,-5.96
2018-03-02T09:11:53.974Z,-5.86
2018-03-02T09:14:23.809Z,-5.82
2018-03-02T09:16:53.005Z,-5.82
2018-03-02T09:19:22.719Z,-5.80
2018-03-02T09:21:53.498Z,-5.64
2018-03-02T09:24:23.355Z,-5.59
2018-03-02T09:26:53.748Z,-5.64
2018-03-02T09:29:23.351Z,-5.70
2018-03-02T09:31:55.107Z,-5.63
2018-03-02T09:34:25.290Z,-5.51
2018-03-02T09:36:55.234Z,-5.33
2018-03-02T09:39:24.604Z,-5.30
2018-03-02T09:41:54.415Z,-5.24
2018-03-02T09:44:23.728Z,-5.25
2018-03-02T09:46:52.807Z,-5.20
2018-03-02T09:49:22.625Z,-5.17
2018-03-02T09:51:52.993Z,-5.10
2018-03-02T09:54:23.293Z,-5.01
2018-03-02T09:56:53.096Z,-4.78
2018-03-02T09:59:23.370Z,-4.69
2018-03-02T10:01:53.885Z,-4.61
2018-03-02T10:04:23.421Z,-4.58
2018-03-02T10:06:52.599Z,-4.43
2018-03-02T10:09:21.696Z,-4.25
2018-03-02T10:11:51.283Z,-3.93
2018-03-02T10:14:21.052Z,-3.79
2018-03-02T10:16:50.523Z,-3.88
2018-03-02T10:19:21.395Z,-4.01
2018-03-02T10:21:52.461Z,-4.14
2018-03-02T10:24:21.855Z,-4.18
2018-03-02T10:26:51.296Z,-4.17
2018-03-02T10:29:21.915Z,-4.10
2018-03-02T10:31:51.344Z,-4.05
2018-03-02T10:34:22.467Z,-4.13
2018-03-02T10:36:52.985Z,-4.21
2018-03-02T10:39:22.670Z,-4.14
2018-03-02T10:41:52.318Z,-4.14
2018-03-02T10:44:21.467Z,-3.85
2018-03-02T10:46:50.701Z,-3.79
2018-03-02T10:49:19.791Z,-3.71
2018-03-02T10:51:48.875Z,-3.40
2018-03-02T10:54:17.948Z,-3.34
2018-03-02T10:56:47.315Z,-3.43
2018-03-02T10:59:16.390Z,-3.45
2018-03-02T11:01:51.079Z,-3.11
2018-03-02T11:04:20.166Z,-2.97
2018-03-02T11:06:49.616Z,-2.98
2018-03-02T11:09:18.703Z,-2.86
2018-03-02T11:11:47.778Z,-2.82
2018-03-02T11:14:16.853Z,-2.65
2018-03-02T11:16:45.927Z,-2.77
2018-03-02T11:19:15.003Z,-2.88
2018-03-02T11:21:44.319Z,-3.03
2018-03-02T11:24:13.805Z,-3.16
2018-03-02T11:26:43.463Z,-3.29
2018-03-02T11:29:12.804Z,-3.27
2018-03-02T11:31:42.524Z,-3.08
2018-03-02T11:34:11.615Z,-3.27
2018-03-02T11:36:40.898Z,-3.51
2018-03-02T11:39:10.223Z,-3.52
2018-03-02T11:41:41.837Z,-3.61
2018-03-02T11:44:12.173Z,-3.74
2018-03-02T11:46:42.096Z,-3.75
2018-03-02T11:49:11.406Z,-3.82
2018-03-02T11:51:40.565Z,-3.92
2018-03-02T11:54:09.747Z,-3.74
2018-03-02T11:56:40.218Z,-3.53
2018-03-02T11:59:09.505Z,-3.26
2018-03-02T12:01:38.646Z,-2.93
2018-03-02T12:04:08.765Z,-2.51
2018-03-02T12:06:37.866Z,-2.49
2018-03-02T12:09:07.671Z,-2.45
2018-03-02T12:11:37.520Z,-2.93
2018-03-02T12:14:07.867Z,-2.93
2018-03-02T12:16:38.186Z,-2.76
2018-03-02T12:19:07.346Z,-2.65
2018-03-02T12:21:38.363Z,-2.42
2018-03-02T12:24:07.499Z,-1.85
2018-03-02T12:26:36.805Z,-1.56
2018-03-02T12:29:05.913Z,-1.34
2018-03-02T12:31:34.996Z,-1.12
2018-03-02T12:34:05.835Z,-0.66
2018-03-02T12:36:34.977Z,-0.72
2018-03-02T12:39:04.351Z,-1.01
2018-03-02T12:41:34.111Z,-0.87
2018-03-02T12:44:04.601Z,-0.85
2018-03-02T12:46:33.693Z,-1.03
2018-03-02T12:49:02.760Z,-1.25
2018-03-02T12:51:31.950Z,-1.61
2018-03-02T12:54:02.060Z,-2.14
2018-03-02T12:56:31.794Z,-2.31
2018-03-02T12:59:01.475Z,-2.50
2018-03-02T13:01:30.551Z,-2.69
2018-03-02T13:04:00.812Z,-2.89
2018-03-02T13:06:31.290Z,-3.07
2018-03-02T13:09:01.615Z,-3.32
2018-03-02T13:11:30.807Z,-3.39
2018-03-02T13:14:00.952Z,-3.48
2018-03-02T13:16:31.163Z,-3.66
2018-03-02T13:19:02.010Z,-3.91
2018-03-02T13:21:32.192Z,-3.99
2018-03-02T13:24:02.088Z,-4.11
2018-03-02T13:26:43.542Z,-4.24
2018-03-02T13:29:13.224Z,-4.37
2018-03-02T13:31:42.346Z,-4.42
2018-03-02T13:34:25.447Z,-4.42
2018-03-02T13:36:54.526Z,-4.50
2018-03-02T13:39:35.593Z,-4.65
2018-03-02T13:42:13.053Z,-4.77
2018-03-02T13:44:42.758Z,-4.77
2018-03-02T13:47:12.761Z,-4.74
2018-03-02T13:49:54.430Z,-4.71
2018-03-02T13:52:23.547Z,-4.65
2018-03-02T13:54:53.488Z,-4.48
2018-03-02T13:57:36.527Z,-4.52
2018-03-02T14:00:07.914Z,-4.50
2018-03-02T14:02:49.478Z,-4.39
2018-03-02T14:05:18.929Z,-4.30
2018-03-02T14:07:48.612Z,-4.21
2018-03-02T14:10:18.895Z,-3.60
2018-03-02T14:12:47.968Z,-3.17
2018-03-02T14:15:17.477Z,-2.98
2018-03-02T14:17:47.970Z,-2.86
2018-03-02T14:20:18.480Z,-2.91
2018-03-02T14:22:47.916Z,-3.03
2018-03-02T14:25:17.498Z,-2.97
2018-03-02T14:27:46.737Z,-3.09
2018-03-02T14:30:16.225Z,-3.28
2018-03-02T14:32:46.374Z,-3.62
2018-03-02T14:35:16.220Z,-3.78
2018-03-02T14:37:45.595Z,-3.88
2018-03-02T14:40:15.175Z,-3.92
2018-03-02T14:42:45.296Z,-4.03
2018-03-02T14:45:15.782Z,-4.03
2018-03-02T14:47:46.906Z,-4.05
2018-03-02T14:50:16.118Z,-4.01
2018-03-02T14:52:45.726Z,-4.02
2018-03-02T14:55:15.906Z,-4.03
2018-03-02T14:57:45.640Z,-4.05
2018-03-02T15:00:14.867Z,-4.17
2018-03-02T15:02:44.067Z,-4.26
2018-03-02T15:05:13.583Z,-4.27
2018-03-02T15:07:43.313Z,-4.31
2018-03-02T15:10:13.287Z,-4.33
2018-03-02T15:12:42.552Z,-4.39
2018-03-02T15:15:12.408Z,-4.43
2018-03-02T15:17:42.065Z,-4.38
2018-03-02T15:20:11.662Z,-4.37
2018-03-02T15:22:41.296Z,-4.33
2018-03-02T15:25:11.501Z,-4.29
2018-03-02T15:27:40.599Z,-4.29
2018-03-02T15:30:10.429Z,-4.33
2018-03-02T15:32:39.512Z,-4.30
2018-03-02T15:35:08.588Z,-4.29
2018-03-02T15:37:38.017Z,-4.36
2018-03-02T15:40:07.130Z,-4.44
2018-03-02T15:42:36.703Z,-4.50
2018-03-02T15:45:05.886Z,-4.57
2018-03-02T15:47:34.970Z,-4.63
2018-03-02T15:50:04.082Z,-4.65
2018-03-02T15:52:33.282Z,-4.67
2018-03-02T15:55:02.407Z,-4.66
2018-03-02T15:57:32.847Z,-4.66
2018-03-02T16:00:02.780Z,-4.66
2018-03-02T16:02:32.064Z,-4.65
2018-03-02T16:05:01.684Z,-4.63
2018-03-02T16:07:31.322Z,-4.63
2018-03-02T16:10:00.773Z,-4.63
2018-03-02T16:12:29.875Z,-4.63
2018-03-02T16:14:59.500Z,-4.66
2018-03-02T16:17:28.968Z,-4.64
2018-03-02T16:19:58.358Z,-4.64
2018-03-02T16:22:27.767Z,-4.67
2018-03-02T16:24:56.911Z,-4.68
2018-03-02T16:27:25.990Z,-4.68
2018-03-02T16:29:55.416Z,-4.67
2018-03-02T16:32:24.732Z,-4.66
2018-03-02T16:34:54.159Z,-4.65
2018-03-02T16:37:24.393Z,-4.63
2018-03-02T16:39:53.587Z,-4.62
2018-03-02T16:42:22.711Z,-4.61
2018-03-02T16:44:53.674Z,-4.59
2018-03-02T16:47:23.071Z,-4.55
2018-03-02T16:49:52.522Z,-4.51
2018-03-02T16:52:22.637Z,-4.46
2018-03-02T16:54:52.690Z,-4.44
2018-03-02T16:57:21.937Z,-4.42
2018-03-02T16:59:51.791Z,-4.41
2018-03-02T17:02:21.749Z,-4.37
2018-03-02T17:04:50.942Z,-4.36
2018-03-02T17:07:20.016Z,-4.36
2018-03-02T17:09:49.095Z,-4.33
2018-03-02T17:12:18.747Z,-4.32
2018-03-02T17:14:48.400Z,-4.33
2018-03-02T17:17:17.578Z,-4.30
2018-03-02T17:19:47.398Z,-4.29
2018-03-02T17:22:16.490Z,-4.28
2018-03-02T17:24:45.863Z,-4.26
2018-03-02T17:27:15.606Z,-4.23
2018-03-02T17:29:44.805Z,-4.24
2018-03-02T17:32:14.162Z,-4.23
2018-03-02T17:34:43.614Z,-4.24
2018-03-02T17:37:12.699Z,-4.22
2018-03-02T17:39:41.910Z,-4.18
2018-03-02T17:42:11.678Z,-4.17
2018-03-02T17:44:40.886Z,-4.11
2018-03-02T17:47:10.183Z,-4.10
2018-03-02T17:49:39.595Z,-4.09
2018-03-02T17:52:08.686Z,-4.10
2018-03-02T17:54:37.763Z,-4.10
2018-03-02T17:57:07.195Z,-4.10
2018-03-02T17:59:36.271Z,-4.11
2018-03-02T18:02:05.599Z,-4.08
2018-03-02T18:04:34.750Z,-4.04
2018-03-02T18:07:04.332Z,-4.03
2018-03-02T18:09:33.846Z,-4.02
2018-03-02T18:12:03.305Z,-4.00
2018-03-02T18:14:32.993Z,-4.00
2018-03-02T18:17:02.212Z,-4.04
2018-03-02T18:19:31.614Z,-4.04
2018-03-02T18:22:00.691Z,-4.05
2018-03-02T18:24:30.170Z,-4.08
2018-03-02T18:26:59.255Z,-4.09
2018-03-02T18:29:28.875Z,-4.08
2018-03-02T18:31:57.947Z,-4.11
2018-03-02T18:34:27.144Z,-4.10
2018-03-02T18:36:56.218Z,-4.11
2018-03-02T18:39:25.526Z,-4.11
2018-03-02T18:41:54.584Z,-4.10
2018-03-02T18:44:24.701Z,-4.07
2018-03-02T18:46:54.015Z,-4.04
2018-03-02T18:49:24.012Z,-4.04
2018-03-02T18:54:47.501Z,-4.02
2018-03-02T18:57:16.678Z,-4.02
2018-03-02T18:59:46.100Z,-4.02
2018-03-02T19:02:15.207Z,-4.07
2018-03-02T19:04:44.305Z,-4.07
2018-03-02T19:07:13.653Z,-4.09
2018-03-02T19:09:42.772Z,-4.09
2018-03-02T19:12:11.970Z,-4.07
2018-03-02T19:14:41.051Z,-4.05
2018-03-02T19:17:10.297Z,-4.03
2018-03-02T19:19:39.703Z,-4.04
2018-03-02T19:22:08.801Z,-4.06
2018-03-02T19:24:37.911Z,-4.07
2018-03-02T19:27:07.016Z,-4.07
2018-03-02T19:29:37.467Z,-4.05
2018-03-02T19:32:06.876Z,-4.03
2018-03-02T19:34:36.379Z,-4.04
2018-03-02T19:37:05.711Z,-4.05
2018-03-02T19:39:34.817Z,-4.01
2018-03-02T19:42:03.894Z,-3.79
2018-03-02T19:44:32.971Z,-3.69
2018-03-02T19:47:02.412Z,-3.68
2018-03-02T19:49:31.521Z,-3.72
2018-03-02T19:52:00.610Z,-3.79
2018-03-02T19:54:29.679Z,-3.84
2018-03-02T19:56:59.351Z,-3.83
2018-03-02T19:59:28.923Z,-3.86
2018-03-02T20:01:57.991Z,-3.86
2018-03-02T20:04:27.067Z,-3.91
2018-03-02T20:06:56.761Z,-3.90
2018-03-02T20:09:25.847Z,-3.85
2018-03-02T20:11:54.919Z,-3.83
2018-03-02T20:14:25.403Z,-3.85
2018-03-02T20:16:54.623Z,-3.92
2018-03-02T20:19:24.030Z,-3.96
2018-03-02T20:21:53.117Z,-3.96
2018-03-02T20:24:22.198Z,-3.96
2018-03-02T20:26:51.535Z,-3.98
2018-03-02T20:29:20.608Z,-4.00
2018-03-02T20:31:49.689Z,-4.03
2018-03-02T20:34:18.774Z,-4.02
2018-03-02T20:36:47.844Z,-4.05
2018-03-02T20:39:16.922Z,-4.09
2018-03-02T20:41:46.063Z,-4.13
2018-03-02T20:44:15.135Z,-4.14
2018-03-02T20:46:45.119Z,-4.18
2018-03-02T20:49:14.460Z,-4.18
2018-03-02T20:51:43.563Z,-4.18
2018-03-02T20:54:12.638Z,-4.19
2018-03-02T20:56:41.712Z,-4.18
2018-03-02T20:59:10.792Z,-4.18
2018-03-02T21:01:39.948Z,-4.19
2018-03-02T21:04:09.023Z,-4.19
2018-03-02T21:06:38.131Z,-4.18
2018-03-02T21:09:07.235Z,-4.18
2018-03-02T21:11:36.616Z,-4.17
2018-03-02T21:14:06.352Z,-4.16
2018-03-02T21:16:35.459Z,-4.14
2018-03-02T21:19:04.542Z,-4.09
2018-03-02T21:21:34.051Z,-4.03
2018-03-02T21:24:03.137Z,-4.03
2018-03-02T21:26:32.552Z,-4.03
2018-03-02T21:29:02.044Z,-4.03
2018-03-02T21:31:31.124Z,-3.98
2018-03-02T21:34:00.508Z,-4.02
2018-03-02T21:36:30.263Z,-4.05
2018-03-02T21:38:59.956Z,-4.10
2018-03-02T21:41:29.035Z,-4.09
2018-03-02T21:43:58.109Z,-4.11
2018-03-02T21:46:27.263Z,-4.13
2018-03-02T21:48:57.779Z,-4.15
2018-03-02T21:51:28.127Z,-4.15
2018-03-02T21:53:57.283Z,-4.14
2018-03-02T21:56:26.451Z,-4.14
2018-03-02T21:58:55.528Z,-4.15
2018-03-02T22:01:27.369Z,-4.10
2018-03-02T22:03:56.515Z,-4.09
2018-03-02T22:06:25.740Z,-4.09
2018-03-02T22:08:55.798Z,-4.07
2018-03-02T22:11:25.149Z,-4.04
2018-03-02T22:13:54.364Z,-4.00
2018-03-02T22:16:23.519Z,-4.00
2018-03-02T22:18:52.669Z,-4.06
2018-03-02T22:21:21.861Z,-4.07
2018-03-02T22:23:51.293Z,-4.02
2018-03-02T22:26:20.386Z,-4.05
2018-03-02T22:28:51.178Z,-4.10
2018-03-02T22:31:20.295Z,-4.11
2018-03-02T22:33:50.039Z,-4.10
2018-03-02T22:36:19.111Z,-4.10
2018-03-02T22:38:48.264Z,-4.13
2018-03-02T22:41:17.997Z,-4.13
2018-03-02T22:43:47.110Z,-4.10
2018-03-02T22:46:16.191Z,-4.07
2018-03-02T22:48:46.312Z,-3.98
2018-03-02T22:51:15.379Z,-3.92
2018-03-02T22:53:44.535Z,-3.88
2018-03-02T22:56:13.883Z,-3.88
2018-03-02T22:58:43.390Z,-3.91
2018-03-02T23:01:13.055Z,-3.94
2018-03-02T23:03:42.259Z,-3.99
2018-03-02T23:06:11.580Z,-4.00
2018-03-02T23:08:40.992Z,-4.01
2018-03-02T23:11:10.818Z,-4.02
2018-03-02T23:13:40.461Z,-4.04
2018-03-02T23:16:09.526Z,-4.07
2018-03-02T23:18:38.906Z,-4.09
2018-03-02T23:21:09.257Z,-4.09
2018-03-02T23:23:38.437Z,-4.10
2018-03-02T23:26:07.998Z,-4.12
2018-03-02T23:28:38.119Z,-4.17
2018-03-02T23:31:08.415Z,-4.17
2018-03-02T23:33:38.417Z,-4.20
2018-03-02T23:36:07.612Z,-4.22
2018-03-02T23:38:37.009Z,-4.21
2018-03-02T23:41:07.007Z,-4.20
2018-03-02T23:43:37.297Z,-4.19
2018-03-02T23:46:06.577Z,-4.20
2018-03-02T23:48:37.184Z,-4.20
2018-03-02T23:51:06.934Z,-4.21
2018-03-02T23:53:36.150Z,-4.26
2018-03-02T23:56:07.057Z,-4.31
2018-03-02T23:58:37.003Z,-4.33
